createdAt,value
2023-05-24T00:00:47.434Z,93531.31
2023-05-24T00:01:44.007Z,93527.75
2023-05-24T00:02:43.587Z,93529.31
2023-05-24T00:03:40.452Z,93525.66
2023-05-24T00:04:37.199Z,93522.56
2023-05-24T00:05:37.746Z,93524.16
2023-05-24T00:06:37.491Z,93523.16
2023-05-24T00:07:34.013Z,93522.72
2023-05-24T00:08:30.542Z,93525.59
2023-05-24T00:09:27.063Z,93530.28
2023-05-24T00:10:23.629Z,93423.41
2023-05-24T00:11:21.058Z,93524.88
2023-05-24T00:12:17.669Z,93531.88
2023-05-24T00:13:15.605Z,93529.22
2023-05-24T00:14:12.143Z,93525.03
2023-05-24T00:15:09.029Z,93531.81
2023-05-24T00:16:05.798Z,93529.22
2023-05-24T00:17:02.401Z,93531.25
2023-05-24T00:17:59.122Z,93528.75
2023-05-24T00:18:59.328Z,93520.09
2023-05-24T00:19:56.636Z,93524.75
2023-05-24T00:20:53.403Z,93524.88
2023-05-24T00:21:50.098Z,93520.88
2023-05-24T00:22:47.090Z,93525.97
2023-05-24T00:23:44.166Z,93515.34
2023-05-24T00:24:40.724Z,93517.53
2023-05-24T00:25:37.267Z,93513.78
2023-05-24T00:26:33.761Z,93515.91
2023-05-24T00:27:30.381Z,93511.97
2023-05-24T00:28:27.088Z,93510.16
2023-05-24T00:29:23.563Z,93506.44
2023-05-24T00:30:20.045Z,93506.78
2023-05-24T00:31:16.747Z,93508.75
2023-05-24T00:32:13.590Z,93503.41
2023-05-24T00:33:10.240Z,93508.75
2023-05-24T00:34:07.763Z,93515.47
2023-05-24T00:35:04.466Z,93506.75
2023-05-24T00:36:01.109Z,93514.69
2023-05-24T00:36:58.720Z,93504.88
2023-05-24T00:37:55.207Z,93507.38
2023-05-24T00:38:52.887Z,93502.44
2023-05-24T00:39:49.474Z,93505.00
2023-05-24T00:40:46.012Z,93504.59
2023-05-24T00:41:42.576Z,93506.38
2023-05-24T00:42:39.132Z,93503.38
2023-05-24T00:43:37.175Z,93509.41
2023-05-24T00:44:33.683Z,93507.16
2023-05-24T00:45:32.400Z,93506.09
2023-05-24T00:46:33.354Z,93501.38
2023-05-24T00:47:30.172Z,93506.84
2023-05-24T00:48:28.875Z,93503.94
2023-05-24T00:49:26.491Z,93505.28
2023-05-24T00:50:23.400Z,93502.09
2023-05-24T00:51:20.057Z,93503.94
2023-05-24T00:52:17.073Z,93505.38
2023-05-24T00:53:13.690Z,93510.22
2023-05-24T00:54:10.659Z,93516.75
2023-05-24T00:55:07.554Z,93512.25
2023-05-24T00:56:04.406Z,93508.97
2023-05-24T00:57:00.986Z,93508.53
2023-05-24T00:57:57.923Z,93512.38
2023-05-24T00:58:57.140Z,93513.59
2023-05-24T00:59:53.662Z,93502.31
2023-05-24T01:00:51.111Z,93512.81
2023-05-24T01:01:47.656Z,93508.94
2023-05-24T01:02:44.293Z,93508.94
2023-05-24T01:03:41.823Z,93505.47
2023-05-24T01:04:38.499Z,93504.41
2023-05-24T01:05:34.967Z,93509.53
2023-05-24T01:06:36.376Z,93506.00
2023-05-24T01:07:57.344Z,93509.38
2023-05-24T01:08:56.431Z,93506.59
2023-05-24T01:09:56.762Z,93507.75
2023-05-24T01:11:19.528Z,93510.75
2023-05-24T01:12:22.160Z,93506.75
2023-05-24T01:13:29.808Z,93510.81
2023-05-24T01:14:29.433Z,93508.72
2023-05-24T01:15:41.011Z,93517.72
2023-05-24T01:16:52.048Z,93509.09
2023-05-24T01:17:55.878Z,93518.41
2023-05-24T01:19:02.559Z,93514.38
2023-05-24T01:20:02.319Z,93516.09
2023-05-24T01:21:06.635Z,93513.59
2023-05-24T01:22:06.641Z,93515.75
2023-05-24T01:23:19.050Z,93509.16
2023-05-24T01:24:25.489Z,93519.88
2023-05-24T01:25:39.122Z,93515.44
2023-05-24T01:26:54.633Z,93514.25
2023-05-24T01:27:51.398Z,93518.09
2023-05-24T01:28:48.387Z,93515.31
2023-05-24T01:29:44.928Z,93521.31
2023-05-24T01:30:42.267Z,93525.28
2023-05-24T01:31:39.047Z,93517.88
2023-05-24T01:32:35.905Z,93519.59
2023-05-24T01:33:32.788Z,93511.31
2023-05-24T01:34:29.963Z,93512.97
2023-05-24T01:35:26.480Z,93510.38
2023-05-24T01:36:23.138Z,93514.03
2023-05-24T01:37:19.885Z,93515.59
2023-05-24T01:38:16.433Z,93506.09
2023-05-24T01:39:13.481Z,93504.53
2023-05-24T01:40:11.142Z,93506.59
2023-05-24T01:41:16.170Z,93506.59
2023-05-24T01:42:26.717Z,93507.66
2023-05-24T01:43:29.372Z,93506.72
2023-05-24T01:44:29.532Z,93513.31
2023-05-24T01:45:31.157Z,93506.44
2023-05-24T01:46:37.732Z,93503.47
2023-05-24T01:47:52.598Z,93503.97
2023-05-24T01:48:49.116Z,93508.53
2023-05-24T01:49:49.794Z,93510.31
2023-05-24T01:50:52.493Z,93502.63
2023-05-24T01:51:54.909Z,93508.25
2023-05-24T01:52:52.456Z,93506.47
2023-05-24T01:53:50.910Z,93505.81
2023-05-24T01:54:50.546Z,93506.97
2023-05-24T01:55:48.779Z,93507.91
2023-05-24T01:56:47.868Z,93504.53
2023-05-24T01:57:46.288Z,93503.31
2023-05-24T01:58:45.662Z,93507.16
2023-05-24T01:59:43.125Z,93507.94
2023-05-24T02:00:40.824Z,93510.53
2023-05-24T02:01:37.874Z,93509.81
2023-05-24T02:02:34.716Z,93504.44
2023-05-24T02:03:31.447Z,93509.31
2023-05-24T02:04:28.091Z,93505.81
2023-05-24T02:05:24.833Z,93503.00
2023-05-24T02:06:21.307Z,93509.50
2023-05-24T02:07:17.833Z,93508.72
2023-05-24T02:08:14.591Z,93497.00
2023-05-24T02:09:11.174Z,93501.59
2023-05-24T02:10:07.926Z,93504.00
2023-05-24T02:11:04.497Z,93504.09
2023-05-24T02:12:01.065Z,93509.25
2023-05-24T02:12:59.602Z,93512.09
2023-05-24T02:13:56.191Z,93501.19
2023-05-24T02:14:54.663Z,93512.91
2023-05-24T02:15:53.756Z,93510.06
2023-05-24T02:16:50.813Z,93510.06
2023-05-24T02:17:48.249Z,93509.41
2023-05-24T02:18:46.823Z,93513.88
2023-05-24T02:19:43.660Z,93510.50
2023-05-24T02:20:40.840Z,93511.72
2023-05-24T02:21:37.900Z,93513.94
2023-05-24T02:22:34.487Z,93517.44
2023-05-24T02:23:31.665Z,93511.34
2023-05-24T02:24:28.253Z,93514.97
2023-05-24T02:25:24.734Z,93510.75
2023-05-24T02:26:21.238Z,93507.66
2023-05-24T02:27:17.764Z,93513.25
2023-05-24T02:28:14.299Z,93512.94
2023-05-24T02:29:11.327Z,93518.19
2023-05-24T02:30:08.290Z,93515.06
2023-05-24T02:31:05.019Z,93512.56
2023-05-24T02:32:01.855Z,93507.44
2023-05-24T02:32:58.460Z,93508.56
2023-05-24T02:33:58.560Z,93498.75
2023-05-24T02:34:55.016Z,93504.19
2023-05-24T02:35:51.722Z,93508.47
2023-05-24T02:36:48.217Z,93507.66
2023-05-24T02:37:44.766Z,93510.59
2023-05-24T02:38:41.440Z,93512.56
2023-05-24T02:39:37.940Z,93508.66
2023-05-24T02:40:34.789Z,93507.44
2023-05-24T02:41:31.326Z,93506.25
2023-05-24T02:42:27.829Z,93508.03
2023-05-24T02:43:24.368Z,93511.06
2023-05-24T02:44:20.880Z,93513.97
2023-05-24T02:45:17.424Z,93528.31
2023-05-24T02:46:14.432Z,93503.56
2023-05-24T02:47:10.924Z,93510.63
2023-05-24T02:48:07.443Z,93503.66
2023-05-24T02:49:05.169Z,93512.31
2023-05-24T02:50:01.689Z,93513.09
2023-05-24T02:50:58.214Z,93506.13
2023-05-24T02:51:54.806Z,93508.09
2023-05-24T02:52:51.781Z,93506.91
2023-05-24T02:53:48.357Z,93508.47
2023-05-24T02:54:44.938Z,93510.00
2023-05-24T02:55:44.045Z,93509.47
2023-05-24T02:56:41.054Z,93504.41
2023-05-24T02:57:37.936Z,93500.13
2023-05-24T02:58:35.096Z,93500.81
2023-05-24T02:59:32.317Z,93509.84
2023-05-24T03:00:28.957Z,93506.59
2023-05-24T03:01:25.573Z,93504.00
2023-05-24T03:02:22.424Z,93506.72
2023-05-24T03:03:19.065Z,93506.72
2023-05-24T03:04:15.766Z,93503.97
2023-05-24T03:05:12.273Z,93507.69
2023-05-24T03:06:08.855Z,93513.97
2023-05-24T03:07:05.393Z,93510.78
2023-05-24T03:08:01.961Z,93516.53
2023-05-24T03:08:59.365Z,93513.69
2023-05-24T03:09:55.929Z,93507.63
2023-05-24T03:10:52.493Z,93513.09
2023-05-24T03:11:48.991Z,93511.44
2023-05-24T03:12:45.743Z,93512.72
2023-05-24T03:13:42.566Z,93512.31
2023-05-24T03:14:39.106Z,93511.13
2023-05-24T03:15:35.677Z,93514.53
2023-05-24T03:16:33.134Z,93511.25
2023-05-24T03:17:29.686Z,93512.06
2023-05-24T03:18:26.401Z,93508.72
2023-05-24T03:19:22.949Z,93508.28
2023-05-24T03:20:21.213Z,93509.41
2023-05-24T03:21:20.751Z,93507.50
2023-05-24T03:22:17.527Z,93511.34
2023-05-24T03:23:15.045Z,93515.25
2023-05-24T03:24:13.235Z,93510.06
2023-05-24T03:25:09.875Z,93511.56
2023-05-24T03:26:07.453Z,93519.09
2023-05-24T03:27:04.662Z,93522.03
2023-05-24T03:28:02.697Z,93523.41
2023-05-24T03:28:59.243Z,93523.31
2023-05-24T03:29:55.795Z,93524.53
2023-05-24T03:30:52.330Z,93522.97
2023-05-24T03:31:48.907Z,93524.91
2023-05-24T03:32:45.470Z,93526.06
2023-05-24T03:33:41.978Z,93514.19
2023-05-24T03:34:38.460Z,93522.53
2023-05-24T03:35:34.957Z,93522.63
2023-05-24T03:36:32.842Z,93520.03
2023-05-24T03:37:29.371Z,93516.75
2023-05-24T03:38:26.019Z,93517.75
2023-05-24T03:39:22.566Z,93525.28
2023-05-24T03:40:19.258Z,93529.16
2023-05-24T03:41:16.309Z,93524.66
2023-05-24T03:42:12.938Z,93528.81
2023-05-24T03:43:09.537Z,93526.41
2023-05-24T03:44:06.083Z,93430.84
2023-05-24T03:45:02.599Z,93532.50
2023-05-24T03:45:59.220Z,93530.63
2023-05-24T03:46:55.786Z,93531.00
2023-05-24T03:47:52.370Z,93534.06
2023-05-24T03:48:49.685Z,93537.72
2023-05-24T03:49:46.266Z,93537.03
2023-05-24T03:50:43.006Z,93538.44
2023-05-24T03:51:39.686Z,93538.72
2023-05-24T03:52:36.243Z,93536.03
2023-05-24T03:53:32.826Z,93535.44
2023-05-24T03:54:29.474Z,93538.22
2023-05-24T03:55:26.111Z,93538.09
2023-05-24T03:56:22.780Z,93544.91
2023-05-24T03:57:19.257Z,93543.66
2023-05-24T03:58:15.842Z,93535.03
2023-05-24T03:59:12.382Z,93543.81
2023-05-24T04:00:10.033Z,93543.25
2023-05-24T04:01:06.828Z,93542.88
2023-05-24T04:02:03.661Z,93541.75
2023-05-24T04:03:01.819Z,93544.41
2023-05-24T04:03:58.638Z,93548.28
2023-05-24T04:04:55.813Z,93540.00
2023-05-24T04:05:52.324Z,93543.13
2023-05-24T04:06:49.779Z,93543.91
2023-05-24T04:07:46.609Z,93550.00
2023-05-24T04:08:43.206Z,93539.22
2023-05-24T04:09:40.420Z,93556.78
2023-05-24T04:10:36.925Z,93541.28
2023-05-24T04:11:33.591Z,93537.66
2023-05-24T04:12:30.170Z,93540.72
2023-05-24T04:13:26.682Z,93544.66
2023-05-24T04:14:23.276Z,93544.91
2023-05-24T04:15:19.823Z,93542.44
2023-05-24T04:16:16.346Z,93544.03
2023-05-24T04:17:13.138Z,93543.75
2023-05-24T04:18:10.239Z,93543.81
2023-05-24T04:19:07.244Z,93543.75
2023-05-24T04:20:05.679Z,93546.72
2023-05-24T04:21:02.224Z,93539.38
2023-05-24T04:21:58.784Z,93543.69
2023-05-24T04:22:56.354Z,93549.03
2023-05-24T04:23:53.223Z,93545.59
2023-05-24T04:24:49.819Z,93550.56
2023-05-24T04:25:46.361Z,93549.28
2023-05-24T04:26:42.838Z,93550.50
2023-05-24T04:27:40.014Z,93551.03
2023-05-24T04:28:38.210Z,93551.81
2023-05-24T04:29:34.838Z,93544.22
2023-05-24T04:30:31.726Z,93548.22
2023-05-24T04:31:30.367Z,93548.06
2023-05-24T04:32:30.530Z,93552.97
2023-05-24T04:33:27.787Z,93554.53
2023-05-24T04:34:24.486Z,93552.50
2023-05-24T04:35:21.286Z,93554.19
2023-05-24T04:36:17.936Z,93558.88
2023-05-24T04:37:17.292Z,93548.66
2023-05-24T04:38:14.367Z,93549.38
2023-05-24T04:39:11.623Z,93550.91
2023-05-24T04:40:08.719Z,93555.56
2023-05-24T04:41:08.375Z,93554.53
2023-05-24T04:42:05.090Z,93554.19
2023-05-24T04:43:01.659Z,93558.41
2023-05-24T04:43:59.945Z,93554.06
2023-05-24T04:44:56.440Z,93555.28
2023-05-24T04:45:56.305Z,93556.22
2023-05-24T04:46:53.475Z,93565.53
2023-05-24T04:47:50.096Z,93561.66
2023-05-24T04:48:46.829Z,93566.78
2023-05-24T04:49:43.456Z,93558.69
2023-05-24T04:50:40.351Z,93563.31
2023-05-24T04:51:38.770Z,93565.06
2023-05-24T04:52:36.534Z,93566.66
2023-05-24T04:53:33.253Z,93574.59
2023-05-24T04:54:29.871Z,93567.03
2023-05-24T04:55:26.503Z,93568.88
2023-05-24T04:56:23.247Z,93569.75
2023-05-24T04:57:19.890Z,93572.66
2023-05-24T04:58:17.092Z,93574.53
2023-05-24T04:59:13.711Z,93580.44
2023-05-24T05:00:10.574Z,93570.81
2023-05-24T05:01:07.498Z,93580.91
2023-05-24T05:02:04.046Z,93574.06
2023-05-24T05:03:00.717Z,93575.75
2023-05-24T05:03:57.408Z,93583.72
2023-05-24T05:04:53.950Z,93579.56
2023-05-24T05:05:50.517Z,93579.88
2023-05-24T05:06:48.353Z,93581.72
2023-05-24T05:07:45.472Z,93578.75
2023-05-24T05:08:42.016Z,93531.72
2023-05-24T05:09:38.483Z,93594.94
2023-05-24T05:10:35.922Z,93585.38
2023-05-24T05:11:32.559Z,93584.75
2023-05-24T05:12:29.165Z,93581.38
2023-05-24T05:13:25.730Z,93584.88
2023-05-24T05:14:22.278Z,93589.56
2023-05-24T05:15:18.941Z,93585.78
2023-05-24T05:16:15.547Z,93584.31
2023-05-24T05:17:12.056Z,93584.75
2023-05-24T05:18:08.630Z,93580.81
2023-05-24T05:19:05.897Z,93583.28
2023-05-24T05:20:03.777Z,93581.22
2023-05-24T05:21:00.353Z,93581.94
2023-05-24T05:21:56.850Z,93581.91
2023-05-24T05:22:53.474Z,93578.44
2023-05-24T05:23:50.139Z,93575.69
2023-05-24T05:24:46.799Z,93573.31
2023-05-24T05:25:43.354Z,93573.69
2023-05-24T05:26:39.976Z,93585.22
2023-05-24T05:27:36.726Z,93581.94
2023-05-24T05:28:33.443Z,93591.75
2023-05-24T05:29:29.998Z,93580.94
2023-05-24T05:30:26.510Z,93581.56
2023-05-24T05:31:23.421Z,93581.91
2023-05-24T05:32:20.204Z,93581.84
2023-05-24T05:33:16.704Z,93580.72
2023-05-24T05:34:13.337Z,93588.13
2023-05-24T05:35:09.984Z,93589.63
2023-05-24T05:36:06.703Z,93588.19
2023-05-24T05:37:03.349Z,93591.97
2023-05-24T05:37:59.886Z,93591.56
2023-05-24T05:38:56.392Z,93588.19
2023-05-24T05:39:52.895Z,93592.38
2023-05-24T05:40:49.518Z,93593.16
2023-05-24T05:41:46.492Z,93593.22
2023-05-24T05:42:43.361Z,93590.56
2023-05-24T05:43:39.942Z,93590.88
2023-05-24T05:44:36.570Z,93595.91
2023-05-24T05:45:33.061Z,93593.66
2023-05-24T05:46:29.655Z,93591.31
2023-05-24T05:47:26.276Z,93589.06
2023-05-24T05:48:22.924Z,93592.94
2023-05-24T05:49:19.859Z,93596.84
2023-05-24T05:50:16.406Z,93597.03
2023-05-24T05:51:13.151Z,93597.78
2023-05-24T05:52:09.739Z,93594.69
2023-05-24T05:53:06.248Z,93594.38
2023-05-24T05:54:02.829Z,93593.56
2023-05-24T05:55:00.351Z,93593.16
2023-05-24T05:55:56.888Z,93601.63
2023-05-24T05:56:53.416Z,93593.16
2023-05-24T05:57:49.960Z,93599.75
2023-05-24T05:58:46.567Z,93595.72
2023-05-24T05:59:43.192Z,93598.81
2023-05-24T06:00:40.494Z,93597.28
2023-05-24T06:01:37.138Z,93598.81
2023-05-24T06:02:33.819Z,93603.09
2023-05-24T06:03:30.639Z,93599.72
2023-05-24T06:04:27.353Z,93598.13
2023-05-24T06:05:23.950Z,93607.72
2023-05-24T06:06:20.469Z,93598.97
2023-05-24T06:07:16.952Z,93611.59
2023-05-24T06:08:13.488Z,93606.59
2023-05-24T06:09:10.070Z,93607.75
2023-05-24T06:10:06.995Z,93608.13
2023-05-24T06:11:03.633Z,93613.81
2023-05-24T06:12:00.184Z,93611.59
2023-05-24T06:12:56.673Z,93605.06
2023-05-24T06:13:53.545Z,93602.75
2023-05-24T06:14:50.740Z,93604.34
2023-05-24T06:15:47.593Z,93601.66
2023-05-24T06:16:46.064Z,93609.75
2023-05-24T06:17:43.981Z,93601.28
2023-05-24T06:18:47.435Z,93605.53
2023-05-24T06:19:54.093Z,93605.91
2023-05-24T06:20:50.680Z,93607.06
2023-05-24T06:21:50.877Z,93615.44
2023-05-24T06:22:49.732Z,93613.13
2023-05-24T06:23:46.233Z,93610.50
2023-05-24T06:24:43.882Z,93618.56
2023-05-24T06:25:40.584Z,93614.00
2023-05-24T06:26:37.648Z,93609.34
2023-05-24T06:27:34.307Z,93609.28
2023-05-24T06:28:30.999Z,93613.91
2023-05-24T06:29:27.736Z,93610.84
2023-05-24T06:30:24.424Z,93616.59
2023-05-24T06:31:21.425Z,93615.53
2023-05-24T06:32:18.145Z,93614.75
2023-05-24T06:33:14.920Z,93623.59
2023-05-24T06:34:11.411Z,93622.44
2023-05-24T06:35:08.302Z,93613.97
2023-05-24T06:36:05.032Z,93611.28
2023-05-24T06:37:02.617Z,93618.59
2023-05-24T06:37:59.292Z,93613.97
2023-05-24T06:38:55.890Z,93617.06
2023-05-24T06:39:52.455Z,93614.75
2023-05-24T06:40:49.251Z,93618.97
2023-05-24T06:41:47.022Z,93618.97
2023-05-24T06:42:43.657Z,93612.44
2023-05-24T06:43:40.522Z,93535.91
2023-05-24T06:44:37.134Z,93615.13
2023-05-24T06:45:33.706Z,93636.31
2023-05-24T06:46:30.631Z,93616.63
2023-05-24T06:47:27.309Z,93622.03
2023-05-24T06:48:24.030Z,93616.66
2023-05-24T06:49:21.187Z,93622.00
2023-05-24T06:50:18.651Z,93615.81
2023-05-24T06:51:15.224Z,93619.59
2023-05-24T06:52:11.826Z,93618.63
2023-05-24T06:53:08.801Z,93627.25
2023-05-24T06:54:05.817Z,93617.94
2023-05-24T06:55:02.328Z,93617.78
2023-05-24T06:55:58.977Z,93614.94
2023-05-24T06:56:55.973Z,93619.78
2023-05-24T06:57:52.493Z,93613.16
2023-05-24T06:58:48.982Z,93613.63
2023-05-24T06:59:45.555Z,93611.63
2023-05-24T07:00:43.002Z,93622.13
2023-05-24T07:01:40.204Z,93606.63
2023-05-24T07:02:36.881Z,93612.44
2023-05-24T07:03:33.459Z,93612.50
2023-05-24T07:04:30.105Z,93615.63
2023-05-24T07:05:26.729Z,93610.53
2023-05-24T07:06:23.341Z,93617.38
2023-05-24T07:07:20.750Z,93610.38
2023-05-24T07:08:17.238Z,93614.13
2023-05-24T07:09:14.341Z,93612.13
2023-05-24T07:10:11.942Z,93613.50
2023-05-24T07:11:09.727Z,93606.44
2023-05-24T07:12:08.865Z,93612.78
2023-05-24T07:13:05.858Z,93608.25
2023-05-24T07:14:02.452Z,93607.03
2023-05-24T07:14:58.990Z,93602.22
2023-05-24T07:15:55.757Z,93606.91
2023-05-24T07:16:52.420Z,93603.03
2023-05-24T07:17:49.044Z,93614.03
2023-05-24T07:18:46.214Z,93601.78
2023-05-24T07:19:42.869Z,93610.03
2023-05-24T07:20:39.550Z,93598.09
2023-05-24T07:21:37.621Z,93608.88
2023-05-24T07:22:34.283Z,93608.53
2023-05-24T07:23:31.236Z,93613.47
2023-05-24T07:24:27.896Z,93608.75
2023-05-24T07:25:24.841Z,93612.72
2023-05-24T07:26:21.974Z,93607.66
2023-05-24T07:27:18.494Z,93608.69
2023-05-24T07:28:15.440Z,93607.34
2023-05-24T07:29:12.142Z,93609.66
2023-05-24T07:30:19.660Z,93610.88
2023-05-24T07:31:26.647Z,93615.44
2023-05-24T07:32:23.306Z,93612.88
2023-05-24T07:33:19.878Z,93613.84
2023-05-24T07:34:16.502Z,93612.38
2023-05-24T07:35:13.732Z,93615.84
2023-05-24T07:36:10.747Z,93615.53
2023-05-24T07:37:07.539Z,93611.03
2023-05-24T07:38:04.046Z,93614.50
2023-05-24T07:39:01.488Z,93614.38
2023-05-24T07:39:58.089Z,93617.00
2023-05-24T07:40:54.873Z,93613.84
2023-05-24T07:41:51.478Z,93603.72
2023-05-24T07:42:48.143Z,93619.81
2023-05-24T07:43:44.644Z,93621.16
2023-05-24T07:44:41.411Z,93613.94
2023-05-24T07:45:37.916Z,93620.72
2023-05-24T07:46:35.346Z,93624.94
2023-05-24T07:47:32.114Z,93618.25
2023-05-24T07:48:28.768Z,93617.22
2023-05-24T07:49:25.358Z,93616.47
2023-05-24T07:50:22.000Z,93619.53
2023-05-24T07:51:18.637Z,93615.94
2023-05-24T07:52:15.465Z,93528.69
2023-05-24T07:53:12.001Z,93618.25
2023-05-24T07:54:08.515Z,93616.25
2023-05-24T07:55:06.255Z,93617.91
2023-05-24T07:56:02.905Z,93618.09
2023-05-24T07:56:59.563Z,93617.03
2023-05-24T07:57:56.834Z,93613.13
2023-05-24T07:58:56.929Z,93612.00
2023-05-24T07:59:53.442Z,93613.63
2023-05-24T08:00:50.078Z,93617.97
2023-05-24T08:01:47.866Z,93617.63
2023-05-24T08:02:46.482Z,93609.69
2023-05-24T08:03:43.687Z,93614.25
2023-05-24T08:04:40.340Z,93613.06
2023-05-24T08:05:36.904Z,93612.06
2023-05-24T08:06:33.473Z,93619.53
2023-05-24T08:07:30.177Z,93613.88
2023-05-24T08:08:26.843Z,93616.78
2023-05-24T08:09:23.561Z,93616.25
2023-05-24T08:10:20.179Z,93620.91
2023-05-24T08:11:17.070Z,93611.00
2023-05-24T08:12:15.586Z,93617.41
2023-05-24T08:13:13.615Z,93610.69
2023-05-24T08:14:10.166Z,93617.50
2023-05-24T08:15:07.345Z,93612.84
2023-05-24T08:16:03.998Z,93610.34
2023-05-24T08:17:03.570Z,93610.44
2023-05-24T08:18:00.191Z,93608.38
2023-05-24T08:18:56.968Z,93613.38
2023-05-24T08:19:53.560Z,93608.00
2023-05-24T08:20:50.184Z,93611.69
2023-05-24T08:21:46.865Z,93617.19
2023-05-24T08:22:43.725Z,93610.06
2023-05-24T08:23:40.797Z,93608.81
2023-05-24T08:24:37.291Z,93613.22
2023-05-24T08:25:33.867Z,93611.53
2023-05-24T08:26:30.410Z,93603.09
2023-05-24T08:27:28.915Z,93611.22
2023-05-24T08:28:26.312Z,93607.50
2023-05-24T08:29:22.904Z,93614.59
2023-05-24T08:30:20.085Z,93612.69
2023-05-24T08:31:17.085Z,93613.84
2023-05-24T08:32:14.251Z,93614.81
2023-05-24T08:33:11.035Z,93614.63
2023-05-24T08:34:07.615Z,93616.94
2023-05-24T08:35:19.220Z,93613.13
2023-05-24T08:36:17.489Z,93615.53
2023-05-24T08:37:16.274Z,93615.78
2023-05-24T08:38:12.935Z,93616.06
2023-05-24T08:39:09.750Z,93617.94
2023-05-24T08:40:09.776Z,93611.81
2023-05-24T08:41:08.444Z,93617.50
2023-05-24T08:42:09.449Z,93617.13
2023-05-24T08:43:11.955Z,93617.63
2023-05-24T08:44:08.562Z,93617.53
2023-05-24T08:45:09.374Z,93614.41
2023-05-24T08:46:07.261Z,93609.69
2023-05-24T08:47:04.244Z,93480.47
2023-05-24T08:48:02.007Z,93622.91
2023-05-24T08:48:59.012Z,93620.81
2023-05-24T08:49:55.691Z,93618.56
2023-05-24T08:50:52.274Z,93616.16
2023-05-24T08:51:49.798Z,93614.91
2023-05-24T08:52:46.435Z,93620.63
2023-05-24T08:53:48.567Z,93618.31
2023-05-24T08:54:45.838Z,93616.91
2023-05-24T08:55:44.064Z,93614.91
2023-05-24T08:56:41.456Z,93612.03
2023-05-24T08:57:40.004Z,93613.56
2023-05-24T08:58:38.724Z,93616.28
2023-05-24T08:59:35.322Z,93612.91
2023-05-24T09:00:32.109Z,93613.31
2023-05-24T09:01:31.417Z,93610.44
2023-05-24T09:02:30.191Z,93600.88
2023-05-24T09:03:27.107Z,93606.06
2023-05-24T09:04:24.410Z,93604.63
2023-05-24T09:05:23.955Z,93605.38
2023-05-24T09:06:20.929Z,93612.03
2023-05-24T09:07:23.663Z,93601.81
2023-05-24T09:08:20.634Z,93599.19
2023-05-24T09:09:18.399Z,93594.84
2023-05-24T09:10:15.165Z,93601.34
2023-05-24T09:11:11.943Z,93602.25
2023-05-24T09:12:08.819Z,93602.94
2023-05-24T09:13:06.414Z,93602.97
2023-05-24T09:14:02.960Z,93604.22
2023-05-24T09:14:59.544Z,93606.72
2023-05-24T09:15:56.175Z,93602.28
2023-05-24T09:16:53.216Z,93608.19
2023-05-24T09:17:49.801Z,93601.56
2023-05-24T09:18:46.417Z,93604.19
2023-05-24T09:19:45.184Z,93601.56
2023-05-24T09:20:42.265Z,93603.78
2023-05-24T09:21:39.094Z,93602.75
2023-05-24T09:22:40.676Z,93594.00
2023-05-24T09:23:37.732Z,93598.84
2023-05-24T09:24:40.613Z,93594.53
2023-05-24T09:25:37.253Z,93599.25
2023-05-24T09:26:36.133Z,93592.78
2023-05-24T09:27:34.529Z,93600.44
2023-05-24T09:28:32.555Z,93600.75
2023-05-24T09:29:29.210Z,93596.38
2023-05-24T09:30:25.937Z,93599.34
2023-05-24T09:31:32.217Z,93593.88
2023-05-24T09:32:29.156Z,93592.19
2023-05-24T09:33:29.128Z,93592.69
2023-05-24T09:34:25.687Z,93597.94
2023-05-24T09:35:22.318Z,93593.88
2023-05-24T09:36:18.910Z,93596.81
2023-05-24T09:37:19.511Z,93594.41
2023-05-24T09:38:19.598Z,93592.56
2023-05-24T09:39:21.021Z,93591.50
2023-05-24T09:40:19.060Z,93591.19
2023-05-24T09:41:15.835Z,93592.84
2023-05-24T09:42:17.623Z,93537.63
2023-05-24T09:43:14.140Z,93596.53
2023-05-24T09:44:13.296Z,93591.88
2023-05-24T09:45:10.768Z,93587.78
2023-05-24T09:46:07.289Z,93585.75
2023-05-24T09:47:06.958Z,93591.00
2023-05-24T09:48:03.974Z,93585.97
2023-05-24T09:49:03.671Z,93585.63
2023-05-24T09:50:00.963Z,93590.38
2023-05-24T09:51:04.246Z,93591.50
2023-05-24T09:52:01.779Z,93589.44
2023-05-24T09:52:58.337Z,93592.59
2023-05-24T09:54:00.887Z,93592.03
2023-05-24T09:54:57.569Z,93591.28
2023-05-24T09:55:55.102Z,93594.69
2023-05-24T09:56:51.718Z,93594.34
2023-05-24T09:57:53.133Z,93592.69
2023-05-24T09:58:49.763Z,93592.97
2023-05-24T09:59:46.720Z,93596.72
2023-05-24T10:00:43.770Z,93593.31
2023-05-24T10:01:40.909Z,93585.22
2023-05-24T10:02:51.483Z,93588.31
2023-05-24T10:03:58.457Z,93591.81
2023-05-24T10:05:00.675Z,93582.03
2023-05-24T10:05:58.221Z,93590.50
2023-05-24T10:06:58.745Z,93586.78
2023-05-24T10:07:59.771Z,93579.53
2023-05-24T10:08:57.196Z,93585.25
2023-05-24T10:09:53.878Z,93589.09
2023-05-24T10:10:50.751Z,93587.75
2023-05-24T10:11:47.460Z,93586.91
2023-05-24T10:12:46.837Z,93587.56
2023-05-24T10:13:43.656Z,93587.16
2023-05-24T10:14:40.161Z,93590.53
2023-05-24T10:15:36.739Z,93591.78
2023-05-24T10:16:33.604Z,93587.97
2023-05-24T10:17:30.265Z,93589.09
2023-05-24T10:18:26.950Z,93584.25
2023-05-24T10:19:24.199Z,93587.81
2023-05-24T10:20:21.293Z,93585.69
2023-05-24T10:21:20.029Z,93592.16
2023-05-24T10:22:17.188Z,93583.16
2023-05-24T10:23:19.255Z,93579.94
2023-05-24T10:24:19.820Z,93588.28
2023-05-24T10:25:25.559Z,93575.66
2023-05-24T10:26:26.277Z,93581.78
2023-05-24T10:27:24.743Z,93583.88
2023-05-24T10:28:22.691Z,93581.69
2023-05-24T10:29:27.801Z,93578.97
2023-05-24T10:30:41.825Z,93572.53
2023-05-24T10:31:41.442Z,93568.25
2023-05-24T10:32:39.412Z,93575.13
2023-05-24T10:33:37.521Z,93574.94
2023-05-24T10:34:34.491Z,93570.13
2023-05-24T10:35:33.865Z,93570.63
2023-05-24T10:36:30.701Z,93571.16
2023-05-24T10:37:27.325Z,93579.13
2023-05-24T10:38:25.035Z,93569.66
2023-05-24T10:39:22.692Z,93560.25
2023-05-24T10:40:20.904Z,93567.81
2023-05-24T10:41:18.185Z,93558.56
2023-05-24T10:42:14.754Z,93561.56
2023-05-24T10:43:11.687Z,93560.31
2023-05-24T10:44:13.263Z,93560.28
2023-05-24T10:45:25.017Z,93560.22
2023-05-24T10:46:22.815Z,93562.00
2023-05-24T10:47:20.870Z,93551.97
2023-05-24T10:48:17.733Z,93557.22
2023-05-24T10:49:15.150Z,93486.28
2023-05-24T10:50:22.243Z,93549.16
2023-05-24T10:51:33.015Z,93538.28
2023-05-24T10:52:36.312Z,93545.63
2023-05-24T10:53:38.801Z,93544.75
2023-05-24T10:54:39.979Z,93549.94
2023-05-24T10:55:52.568Z,93552.22
2023-05-24T10:56:50.488Z,93547.44
2023-05-24T10:57:47.776Z,93544.81
2023-05-24T10:58:48.848Z,93544.72
2023-05-24T10:59:45.518Z,93542.84
2023-05-24T11:00:44.590Z,93551.06
2023-05-24T11:01:42.798Z,93545.25
2023-05-24T11:02:39.436Z,93547.22
2023-05-24T11:03:36.861Z,93541.47
2023-05-24T11:04:36.704Z,93535.25
2023-05-24T11:05:48.774Z,93536.34
2023-05-24T11:06:55.872Z,93543.78
2023-05-24T11:07:58.843Z,93540.59
2023-05-24T11:09:00.067Z,93537.56
2023-05-24T11:09:59.920Z,93540.72
2023-05-24T11:11:26.670Z,93538.59
2023-05-24T11:12:31.498Z,93537.81
2023-05-24T11:13:28.056Z,93533.13
2023-05-24T11:14:27.451Z,93541.16
2023-05-24T11:15:24.360Z,93539.34
2023-05-24T11:16:35.218Z,93536.31
2023-05-24T11:17:51.773Z,93539.56
2023-05-24T11:18:55.784Z,93535.69
2023-05-24T11:19:55.656Z,93529.78
2023-05-24T11:20:52.890Z,93527.50
2023-05-24T11:21:51.024Z,93532.78